This is the latest recevied weather packets stored in our database for station/object OH2FDL-2. If no packets are shown the sender has not sent any weather packets the latest 10 day(s).
| Time | Temp. | Humidity | Pressure | Rain* | Wind** | Luminosity | Snow |
|---|---|---|---|---|---|---|---|
| 1777742118 | 16.67° C | 44% | 1003.9 hPa | - | - | - | - |
| 1777741218 | 17.22° C | 43% | 1003.9 hPa | - | - | - | - |
| 1777737618 | 19.44° C | 38% | 1004.1 hPa | - | - | - | - |
| 1777732223 | 21.67° C | 43% | 1004.3 hPa | - | - | - | - |
| 1777725918 | 22.22° C | 48% | 1004.4 hPa | - | - | - | - |
| 1777725018 | 22.78° C | 49% | 1004.5 hPa | - | - | - | - |
| 1777717819 | 21.67° C | 53% | 1005.2 hPa | - | - | - | - |
| 1777704318 | 12.22° C | 10% | - | - | - | - | - |
| 1777677317 | 4.44° C | 10% | - | - | - | - | - |
| 1777672822 | 6.11° C | 93% | 1010.1 hPa | - | - | - | - |
| 1777665618 | 10° C | 70% | 1011 hPa | - | - | - | - |
| 1777662918 | 11.11° C | 63% | 1011.1 hPa | - | - | - | - |
| 1777659319 | 15° C | 55% | 1011.4 hPa | - | - | - | - |
| 1777657518 | 16.11° C | 53% | 1011.4 hPa | - | - | - | - |
| 1777652119 | 21.11° C | 40% | 1011.4 hPa | - | - | - | - |
| 1777647618 | 22.78° C | 37% | 1012 hPa | - | - | - | - |
| 1777644018 | 22.22° C | 41% | 1012.6 hPa | - | - | - | - |
| 1777643118 | 22.22° C | 41% | 1012.8 hPa | - | - | - | - |
| 1777639518 | 21.11° C | 49% | 1013.6 hPa | - | - | - | - |
| 1777638618 | 20.56° C | 51% | 1013.9 hPa | - | - | - | - |
| 1777633219 | 18.33° C | 60% | 1014.8 hPa | - | - | - | - |
| 1777629618 | 18.33° C | 64% | 1015.3 hPa | - | - | - | - |
| 1777624218 | 15.56° C | 92% | 1016.1 hPa | - | - | - | - |
| 1777621518 | 14.44° C | 10% | - | - | - | - | - |
| 1777613423 | 9.44° C | 10% | - | - | - | - | - |
* Rain since midnight (hover to see other rain measurements)
** Current wind speed in m/s (hover to see current wind gust speed)